Saturday, January 20, 2018, 8:27 AM EST
Back to Local

KYNG, Youngstown-warren Reg Airprt

Location: Vienna, OH, United States Lat: 41.25
Local Time: 8:27 AM EST (13:27 GMT) Lon: -80.667
Time Zone: US/Eastern Elev: 1197 ft

Show me the last for .
Show Coded

Time T Td Feel RH Dir Speed Gust Alt SLP Vis Weather Sky Remarks
2018-01-20 07:51 33 22 24 63 220° 13 - 29.94 29.98 10 SCT180 BKN240 None
2018-01-20 06:51 33 22 23 63 220° 14 - 29.93 29.96 10 SCT240 Snow depth: 5"
6-hr Min Temp (7am): 33.1°F
6-hr Max Temp (7am): 34.0°F
2018-01-20 05:51 33 22 24 63 210° 12 - 29.92 29.95 10 SCT240 None
2018-01-20 04:51 34 22 22 60 210° 13 23 29.90 29.93 10 SCT240 None
2018-01-20 03:51 34 21 23 58 220° 13 20 29.90 29.93 10 BKN240 None
2018-01-20 01:51 34 20 24 55 220° 16 - 29.88 29.91 10 SCT250 None
2018-01-20 00:51 34 20 22 55 220° 16 22 29.87 29.90 10 SCT250 Snow depth: 5"
6-hr Min Temp (1am): 33.1°F
6-hr Max Temp (1am): 35.1°F
2018-01-19 23:51 34 18 22 51 210° 17 24 29.88 29.91 10 FEW100 BKN250 24-hr Min Temp (12am): 19.9°F
24-hr Max Temp (12am): 37.0°F
2018-01-19 22:51 33 17 24 51 210° 12 - 29.90 29.94 10 BKN250 None
2018-01-19 21:51 34 17 25 49 210° 14 - 29.91 29.95 10 BKN250 None
2018-01-19 20:51 34 18 25 51 200° 13 - 29.92 29.96 10 BKN250 None
2018-01-19 19:51 35 18 23 49 210° 13 23 29.93 29.98 10 BKN250 None
2018-01-19 18:51 35 18 27 49 210° 10 - 29.95 29.99 10 SCT250 Snow depth: 6"
6-hr Min Temp (7pm): 30.9°F
6-hr Max Temp (7pm): 37.0°F
2018-01-19 17:51 35 18 27 49 220° 12 - 29.95 29.99 10 SCT250 None
2018-01-19 16:51 36 18 27 47 210° 14 - 29.95 29.99 10 SCT250 None
2018-01-19 15:51 36 18 28 47 190° 13 - 29.94 29.98 10 FEW250 None
2018-01-19 14:51 35 17 26 47 210° 13 - 29.95 29.99 10 FEW250 None
2018-01-19 13:51 34 16 21 47 210° 13 25 29.96 30.00 10 SCT250 None
2018-01-19 12:51 31 15 18 51 210° 13 23 29.99 30.03 10 SCT250 Snow depth: 6"
Water equiv. of snow on ground: 1.0"
6-hr Min Temp (1pm): 19.9°F
6-hr Max Temp (1pm): 30.9°F
2018-01-19 11:51 29 14 15 53 200° 16 23 30.03 30.07 10 FEW250 None
2018-01-19 10:51 27 13 13 54 220° 12 21 30.04 30.09 10 FEW250 None
2018-01-19 09:51 24 12 9 59 210° 12 21 30.04 30.09 10 FEW250 None
2018-01-19 08:51 22 11 10 62 200° 13 - 30.03 30.08 10 FEW250 None

Support USWX by starting your Amazon purchase here.